sensor_id;sensor_type;location;lat;lon;timestamp;temperature;humidity
25046;DHT22;13044;49.304;12.840;2023-11-21T00:02:26;8.30;99.90
25046;DHT22;13044;49.304;12.840;2023-11-21T00:04:54;8.30;99.90
25046;DHT22;13044;49.304;12.840;2023-11-21T00:07:21;8.20;99.90
25046;DHT22;13044;49.304;12.840;2023-11-21T00:09:48;8.20;99.90
25046;DHT22;13044;49.304;12.840;2023-11-21T00:12:15;8.30;99.90
25046;DHT22;13044;49.304;12.840;2023-11-21T00:14:42;8.20;99.90
25046;DHT22;13044;49.304;12.840;2023-11-21T00:17:09;8.20;99.90
25046;DHT22;13044;49.304;12.840;2023-11-21T00:19:35;8.20;99.90
25046;DHT22;13044;49.304;12.840;2023-11-21T00:22:03;8.20;99.90
25046;DHT22;13044;49.304;12.840;2023-11-21T00:24:30;8.20;99.90
25046;DHT22;13044;49.304;12.840;2023-11-21T00:26:56;8.20;99.90
25046;DHT22;13044;49.304;12.840;2023-11-21T00:29:23;8.20;99.90
25046;DHT22;13044;49.304;12.840;2023-11-21T00:31:50;8.20;99.90
25046;DHT22;13044;49.304;12.840;2023-11-21T00:34:17;8.20;99.90
25046;DHT22;13044;49.304;12.840;2023-11-21T00:36:44;8.30;99.90
25046;DHT22;13044;49.304;12.840;2023-11-21T00:39:11;8.30;99.90
25046;DHT22;13044;49.304;12.840;2023-11-21T00:41:38;8.30;99.90
25046;DHT22;13044;49.304;12.840;2023-11-21T00:44:05;8.30;99.90
25046;DHT22;13044;49.304;12.840;2023-11-21T00:46:33;8.20;99.90
25046;DHT22;13044;49.304;12.840;2023-11-21T00:49:00;8.30;99.90
25046;DHT22;13044;49.304;12.840;2023-11-21T00:51:27;8.30;99.90
25046;DHT22;13044;49.304;12.840;2023-11-21T00:53:54;8.40;99.90
25046;DHT22;13044;49.304;12.840;2023-11-21T00:56:21;8.30;99.90
25046;DHT22;13044;49.304;12.840;2023-11-21T00:58:48;8.30;99.90
25046;DHT22;13044;49.304;12.840;2023-11-21T01:01:19;8.30;99.90
25046;DHT22;13044;49.304;12.840;2023-11-21T01:03:47;8.30;99.90
25046;DHT22;13044;49.304;12.840;2023-11-21T01:06:14;8.30;99.90
25046;DHT22;13044;49.304;12.840;2023-11-21T01:08:43;8.30;99.90
25046;DHT22;13044;49.304;12.840;2023-11-21T01:11:11;8.30;99.90
25046;DHT22;13044;49.304;12.840;2023-11-21T01:13:41;8.30;99.90
25046;DHT22;13044;49.304;12.840;2023-11-21T01:16:09;8.30;99.90
25046;DHT22;13044;49.304;12.840;2023-11-21T01:18:36;8.30;99.90
25046;DHT22;13044;49.304;12.840;2023-11-21T01:21:03;8.20;99.90
25046;DHT22;13044;49.304;12.840;2023-11-21T01:23:30;8.10;99.90
25046;DHT22;13044;49.304;12.840;2023-11-21T01:25:57;8.00;99.90
25046;DHT22;13044;49.304;12.840;2023-11-21T01:28:24;8.00;99.90
25046;DHT22;13044;49.304;12.840;2023-11-21T01:30:51;8.00;99.90
25046;DHT22;13044;49.304;12.840;2023-11-21T01:33:18;8.00;99.90
25046;DHT22;13044;49.304;12.840;2023-11-21T01:35:45;8.00;99.90
25046;DHT22;13044;49.304;12.840;2023-11-21T01:38:13;8.00;99.90
25046;DHT22;13044;49.304;12.840;2023-11-21T01:40:41;8.00;99.90
25046;DHT22;13044;49.304;12.840;2023-11-21T01:43:08;8.00;99.90
25046;DHT22;13044;49.304;12.840;2023-11-21T01:45:35;8.00;99.90
25046;DHT22;13044;49.304;12.840;2023-11-21T01:48:02;8.00;99.90
25046;DHT22;13044;49.304;12.840;2023-11-21T01:50:30;8.10;99.90
25046;DHT22;13044;49.304;12.840;2023-11-21T01:52:57;8.00;99.90
25046;DHT22;13044;49.304;12.840;2023-11-21T01:55:24;8.00;99.90
25046;DHT22;13044;49.304;12.840;2023-11-21T01:57:55;7.90;99.90
25046;DHT22;13044;49.304;12.840;2023-11-21T02:00:24;7.90;99.90
25046;DHT22;13044;49.304;12.840;2023-11-21T02:02:51;7.90;99.90
25046;DHT22;13044;49.304;12.840;2023-11-21T02:05:19;7.80;99.90
25046;DHT22;13044;49.304;12.840;2023-11-21T02:07:47;7.80;99.90
25046;DHT22;13044;49.304;12.840;2023-11-21T02:10:16;7.80;99.90
25046;DHT22;13044;49.304;12.840;2023-11-21T02:12:44;7.80;99.90
25046;DHT22;13044;49.304;12.840;2023-11-21T02:15:13;7.70;99.90
25046;DHT22;13044;49.304;12.840;2023-11-21T02:17:47;7.60;99.90
25046;DHT22;13044;49.304;12.840;2023-11-21T02:20:19;7.60;99.90
25046;DHT22;13044;49.304;12.840;2023-11-21T02:22:54;7.60;99.90
25046;DHT22;13044;49.304;12.840;2023-11-21T02:25:26;7.60;99.90
25046;DHT22;13044;49.304;12.840;2023-11-21T02:27:55;7.60;99.90
25046;DHT22;13044;49.304;12.840;2023-11-21T02:30:23;7.60;99.90
25046;DHT22;13044;49.304;12.840;2023-11-21T02:32:52;7.60;99.90
25046;DHT22;13044;49.304;12.840;2023-11-21T02:35:24;7.60;99.90
25046;DHT22;13044;49.304;12.840;2023-11-21T02:37:53;7.60;99.90
25046;DHT22;13044;49.304;12.840;2023-11-21T02:40:21;7.60;99.90
25046;DHT22;13044;49.304;12.840;2023-11-21T02:42:48;7.50;99.90
25046;DHT22;13044;49.304;12.840;2023-11-21T02:45:15;7.50;99.90
25046;DHT22;13044;49.304;12.840;2023-11-21T02:47:45;7.40;99.90
25046;DHT22;13044;49.304;12.840;2023-11-21T02:50:12;7.50;99.90
25046;DHT22;13044;49.304;12.840;2023-11-21T02:52:40;7.50;99.90
25046;DHT22;13044;49.304;12.840;2023-11-21T02:55:07;7.50;99.90
25046;DHT22;13044;49.304;12.840;2023-11-21T02:57:34;7.50;99.90
25046;DHT22;13044;49.304;12.840;2023-11-21T03:00:01;7.50;99.90
25046;DHT22;13044;49.304;12.840;2023-11-21T03:02:29;7.50;99.90
25046;DHT22;13044;49.304;12.840;2023-11-21T03:04:56;7.50;99.90
25046;DHT22;13044;49.304;12.840;2023-11-21T03:07:23;7.50;99.90
25046;DHT22;13044;49.304;12.840;2023-11-21T03:09:50;7.40;99.90
25046;DHT22;13044;49.304;12.840;2023-11-21T03:12:17;7.40;99.90
25046;DHT22;13044;49.304;12.840;2023-11-21T03:14:43;7.40;99.90
25046;DHT22;13044;49.304;12.840;2023-11-21T03:17:10;7.40;99.90
25046;DHT22;13044;49.304;12.840;2023-11-21T03:19:38;7.30;99.90
25046;DHT22;13044;49.304;12.840;2023-11-21T03:22:05;7.30;99.90
25046;DHT22;13044;49.304;12.840;2023-11-21T03:24:31;7.30;99.90
25046;DHT22;13044;49.304;12.840;2023-11-21T03:26:58;7.30;99.90
25046;DHT22;13044;49.304;12.840;2023-11-21T03:29:25;7.30;99.90
25046;DHT22;13044;49.304;12.840;2023-11-21T03:31:52;7.30;99.90
25046;DHT22;13044;49.304;12.840;2023-11-21T03:34:27;7.30;99.90
25046;DHT22;13044;49.304;12.840;2023-11-21T03:36:54;7.30;99.90
25046;DHT22;13044;49.304;12.840;2023-11-21T03:39:21;7.40;99.90
25046;DHT22;13044;49.304;12.840;2023-11-21T03:41:49;7.30;99.90
25046;DHT22;13044;49.304;12.840;2023-11-21T03:44:16;7.30;99.90
25046;DHT22;13044;49.304;12.840;2023-11-21T03:46:44;7.30;99.90
25046;DHT22;13044;49.304;12.840;2023-11-21T03:49:11;7.40;99.90
25046;DHT22;13044;49.304;12.840;2023-11-21T03:51:38;7.30;99.90
25046;DHT22;13044;49.304;12.840;2023-11-21T03:54:05;7.40;99.90
25046;DHT22;13044;49.304;12.840;2023-11-21T03:56:32;7.40;99.90
25046;DHT22;13044;49.304;12.840;2023-11-21T03:58:58;7.40;99.90
25046;DHT22;13044;49.304;12.840;2023-11-21T04:01:25;7.40;99.90
25046;DHT22;13044;49.304;12.840;2023-11-21T04:03:52;7.50;99.90
25046;DHT22;13044;49.304;12.840;2023-11-21T04:06:19;7.50;99.90
25046;DHT22;13044;49.304;12.840;2023-11-21T04:08:46;7.50;99.90
25046;DHT22;13044;49.304;12.840;2023-11-21T04:11:13;7.40;99.90
25046;DHT22;13044;49.304;12.840;2023-11-21T04:13:41;7.40;99.90
25046;DHT22;13044;49.304;12.840;2023-11-21T04:16:09;7.40;99.90
25046;DHT22;13044;49.304;12.840;2023-11-21T04:18:36;7.40;99.90
25046;DHT22;13044;49.304;12.840;2023-11-21T04:21:07;7.40;99.90
25046;DHT22;13044;49.304;12.840;2023-11-21T04:23:35;7.40;99.90
25046;DHT22;13044;49.304;12.840;2023-11-21T04:26:02;7.40;99.90
25046;DHT22;13044;49.304;12.840;2023-11-21T04:28:29;7.50;99.90
25046;DHT22;13044;49.304;12.840;2023-11-21T04:30:56;7.50;99.90
25046;DHT22;13044;49.304;12.840;2023-11-21T04:33:23;7.40;99.90
25046;DHT22;13044;49.304;12.840;2023-11-21T04:35:50;7.40;99.90
25046;DHT22;13044;49.304;12.840;2023-11-21T04:38:19;7.50;99.90
25046;DHT22;13044;49.304;12.840;2023-11-21T04:40:46;7.50;99.90
25046;DHT22;13044;49.304;12.840;2023-11-21T04:43:13;7.50;99.90
25046;DHT22;13044;49.304;12.840;2023-11-21T04:45:40;7.60;99.90
25046;DHT22;13044;49.304;12.840;2023-11-21T04:48:07;7.50;99.90
25046;DHT22;13044;49.304;12.840;2023-11-21T04:50:35;7.50;99.90
25046;DHT22;13044;49.304;12.840;2023-11-21T04:53:02;7.50;99.90
25046;DHT22;13044;49.304;12.840;2023-11-21T04:55:29;7.50;99.90
25046;DHT22;13044;49.304;12.840;2023-11-21T04:57:56;7.50;99.90
25046;DHT22;13044;49.304;12.840;2023-11-21T05:00:22;7.50;99.90
25046;DHT22;13044;49.304;12.840;2023-11-21T05:02:50;7.40;99.90
25046;DHT22;13044;49.304;12.840;2023-11-21T05:05:17;7.40;99.90
25046;DHT22;13044;49.304;12.840;2023-11-21T05:07:44;7.50;99.90
25046;DHT22;13044;49.304;12.840;2023-11-21T05:10:11;7.40;99.90
25046;DHT22;13044;49.304;12.840;2023-11-21T05:12:40;7.50;99.90
25046;DHT22;13044;49.304;12.840;2023-11-21T05:15:08;7.50;99.90
25046;DHT22;13044;49.304;12.840;2023-11-21T05:17:39;7.50;99.90
25046;DHT22;13044;49.304;12.840;2023-11-21T05:20:11;7.50;99.90
25046;DHT22;13044;49.304;12.840;2023-11-21T05:22:39;7.50;99.90
25046;DHT22;13044;49.304;12.840;2023-11-21T05:25:07;7.50;99.90
25046;DHT22;13044;49.304;12.840;2023-11-21T05:27:35;7.60;99.90
25046;DHT22;13044;49.304;12.840;2023-11-21T05:30:03;7.60;99.90
25046;DHT22;13044;49.304;12.840;2023-11-21T05:32:38;7.60;99.90
25046;DHT22;13044;49.304;12.840;2023-11-21T05:35:05;7.60;99.90
25046;DHT22;13044;49.304;12.840;2023-11-21T05:37:36;7.60;99.90
25046;DHT22;13044;49.304;12.840;2023-11-21T05:40:06;7.60;99.90
25046;DHT22;13044;49.304;12.840;2023-11-21T05:42:35;7.60;99.90
25046;DHT22;13044;49.304;12.840;2023-11-21T05:45:02;7.50;99.90
25046;DHT22;13044;49.304;12.840;2023-11-21T05:47:43;7.50;99.90
25046;DHT22;13044;49.304;12.840;2023-11-21T05:50:14;7.40;99.90
25046;DHT22;13044;49.304;12.840;2023-11-21T05:52:43;7.40;99.90
25046;DHT22;13044;49.304;12.840;2023-11-21T05:55:11;7.40;99.90
25046;DHT22;13044;49.304;12.840;2023-11-21T05:57:39;7.50;99.90
25046;DHT22;13044;49.304;12.840;2023-11-21T06:00:11;7.50;99.90
25046;DHT22;13044;49.304;12.840;2023-11-21T06:02:47;7.50;99.90
25046;DHT22;13044;49.304;12.840;2023-11-21T06:05:18;7.50;99.90
25046;DHT22;13044;49.304;12.840;2023-11-21T06:07:46;7.50;99.90
25046;DHT22;13044;49.304;12.840;2023-11-21T06:10:13;7.50;99.90
25046;DHT22;13044;49.304;12.840;2023-11-21T06:12:41;7.50;99.90
25046;DHT22;13044;49.304;12.840;2023-11-21T06:15:10;7.60;99.90
25046;DHT22;13044;49.304;12.840;2023-11-21T06:17:42;7.60;99.90
25046;DHT22;13044;49.304;12.840;2023-11-21T06:20:10;7.60;99.90
25046;DHT22;13044;49.304;12.840;2023-11-21T06:22:42;7.60;99.90
25046;DHT22;13044;49.304;12.840;2023-11-21T06:25:11;7.70;99.90
25046;DHT22;13044;49.304;12.840;2023-11-21T06:27:43;7.70;99.90
25046;DHT22;13044;49.304;12.840;2023-11-21T06:30:12;7.70;99.90
25046;DHT22;13044;49.304;12.840;2023-11-21T06:32:41;7.70;99.90
25046;DHT22;13044;49.304;12.840;2023-11-21T06:35:12;7.70;99.90
25046;DHT22;13044;49.304;12.840;2023-11-21T06:37:39;7.70;99.90
25046;DHT22;13044;49.304;12.840;2023-11-21T06:40:07;7.80;99.90
25046;DHT22;13044;49.304;12.840;2023-11-21T06:42:36;7.70;99.90
25046;DHT22;13044;49.304;12.840;2023-11-21T06:45:05;7.60;99.90
25046;DHT22;13044;49.304;12.840;2023-11-21T06:47:32;7.60;99.90
25046;DHT22;13044;49.304;12.840;2023-11-21T06:50:00;7.50;99.90
25046;DHT22;13044;49.304;12.840;2023-11-21T06:52:27;7.40;99.90
25046;DHT22;13044;49.304;12.840;2023-11-21T06:54:54;7.40;99.90
25046;DHT22;13044;49.304;12.840;2023-11-21T06:57:23;7.40;99.90
25046;DHT22;13044;49.304;12.840;2023-11-21T06:59:50;7.40;99.90
25046;DHT22;13044;49.304;12.840;2023-11-21T07:02:17;7.50;99.90
25046;DHT22;13044;49.304;12.840;2023-11-21T07:04:46;7.60;99.90
25046;DHT22;13044;49.304;12.840;2023-11-21T07:07:13;7.60;99.90
25046;DHT22;13044;49.304;12.840;2023-11-21T07:09:39;7.60;99.90
25046;DHT22;13044;49.304;12.840;2023-11-21T07:12:06;7.70;99.90
25046;DHT22;13044;49.304;12.840;2023-11-21T07:14:34;7.70;99.90
25046;DHT22;13044;49.304;12.840;2023-11-21T07:17:01;7.70;99.90
25046;DHT22;13044;49.304;12.840;2023-11-21T07:21:57;7.70;99.90
25046;DHT22;13044;49.304;12.840;2023-11-21T07:24:23;7.70;99.90
25046;DHT22;13044;49.304;12.840;2023-11-21T07:26:53;7.70;99.90
25046;DHT22;13044;49.304;12.840;2023-11-21T07:29:24;7.70;99.90
25046;DHT22;13044;49.304;12.840;2023-11-21T07:31:53;7.70;99.90
25046;DHT22;13044;49.304;12.840;2023-11-21T07:34:20;7.60;99.90
25046;DHT22;13044;49.304;12.840;2023-11-21T07:36:48;7.50;99.90
25046;DHT22;13044;49.304;12.840;2023-11-21T07:39:14;7.60;99.90
25046;DHT22;13044;49.304;12.840;2023-11-21T07:41:44;7.70;99.90
25046;DHT22;13044;49.304;12.840;2023-11-21T07:44:18;7.70;99.90
25046;DHT22;13044;49.304;12.840;2023-11-21T07:46:46;7.70;99.90
25046;DHT22;13044;49.304;12.840;2023-11-21T07:49:13;7.80;99.90
25046;DHT22;13044;49.304;12.840;2023-11-21T07:51:46;7.90;99.90
25046;DHT22;13044;49.304;12.840;2023-11-21T07:54:13;8.00;99.90
25046;DHT22;13044;49.304;12.840;2023-11-21T07:56:40;8.00;99.90
25046;DHT22;13044;49.304;12.840;2023-11-21T07:59:07;8.10;99.90
25046;DHT22;13044;49.304;12.840;2023-11-21T08:01:34;8.20;99.90
25046;DHT22;13044;49.304;12.840;2023-11-21T08:04:01;8.20;99.90
25046;DHT22;13044;49.304;12.840;2023-11-21T08:06:31;8.20;99.90
25046;DHT22;13044;49.304;12.840;2023-11-21T08:08:58;8.10;99.90
25046;DHT22;13044;49.304;12.840;2023-11-21T08:11:25;8.10;99.90
25046;DHT22;13044;49.304;12.840;2023-11-21T08:13:55;8.10;99.90
25046;DHT22;13044;49.304;12.840;2023-11-21T08:16:23;8.20;99.90
25046;DHT22;13044;49.304;12.840;2023-11-21T08:18:51;8.20;99.90
25046;DHT22;13044;49.304;12.840;2023-11-21T08:21:18;8.10;99.90
25046;DHT22;13044;49.304;12.840;2023-11-21T08:23:45;8.20;99.90
25046;DHT22;13044;49.304;12.840;2023-11-21T08:26:16;8.20;99.90
25046;DHT22;13044;49.304;12.840;2023-11-21T08:28:43;8.30;99.90
25046;DHT22;13044;49.304;12.840;2023-11-21T08:31:10;8.30;99.90
25046;DHT22;13044;49.304;12.840;2023-11-21T08:33:39;8.30;99.90
25046;DHT22;13044;49.304;12.840;2023-11-21T08:36:08;8.20;99.90
25046;DHT22;13044;49.304;12.840;2023-11-21T08:38:35;8.10;99.90
25046;DHT22;13044;49.304;12.840;2023-11-21T08:41:06;8.00;99.90
25046;DHT22;13044;49.304;12.840;2023-11-21T08:43:37;8.00;99.90
25046;DHT22;13044;49.304;12.840;2023-11-21T08:46:06;8.10;99.90
25046;DHT22;13044;49.304;12.840;2023-11-21T08:48:36;8.20;99.90
25046;DHT22;13044;49.304;12.840;2023-11-21T08:51:04;8.20;99.90
25046;DHT22;13044;49.304;12.840;2023-11-21T08:53:31;8.30;99.90
25046;DHT22;13044;49.304;12.840;2023-11-21T08:55:59;8.20;99.90
25046;DHT22;13044;49.304;12.840;2023-11-21T08:58:27;8.20;99.90
25046;DHT22;13044;49.304;12.840;2023-11-21T09:00:53;8.20;99.90
25046;DHT22;13044;49.304;12.840;2023-11-21T09:03:20;8.10;99.90
25046;DHT22;13044;49.304;12.840;2023-11-21T09:05:48;8.10;99.90
25046;DHT22;13044;49.304;12.840;2023-11-21T09:08:15;7.90;99.90
25046;DHT22;13044;49.304;12.840;2023-11-21T09:10:42;8.00;99.90
25046;DHT22;13044;49.304;12.840;2023-11-21T09:13:10;8.00;99.90
25046;DHT22;13044;49.304;12.840;2023-11-21T09:15:36;7.90;99.90
25046;DHT22;13044;49.304;12.840;2023-11-21T09:18:04;7.90;99.90
25046;DHT22;13044;49.304;12.840;2023-11-21T09:20:31;8.00;99.90
25046;DHT22;13044;49.304;12.840;2023-11-21T09:22:58;8.10;99.90
25046;DHT22;13044;49.304;12.840;2023-11-21T09:25:25;8.10;99.90
25046;DHT22;13044;49.304;12.840;2023-11-21T09:27:52;8.10;99.90
25046;DHT22;13044;49.304;12.840;2023-11-21T09:30:19;8.20;99.90
25046;DHT22;13044;49.304;12.840;2023-11-21T09:32:46;8.10;99.90
25046;DHT22;13044;49.304;12.840;2023-11-21T09:35:13;8.00;99.90
25046;DHT22;13044;49.304;12.840;2023-11-21T09:37:43;8.10;99.90
25046;DHT22;13044;49.304;12.840;2023-11-21T09:40:21;8.10;99.90
25046;DHT22;13044;49.304;12.840;2023-11-21T09:42:56;8.00;99.90
25046;DHT22;13044;49.304;12.840;2023-11-21T09:45:34;8.10;99.90
25046;DHT22;13044;49.304;12.840;2023-11-21T09:48:02;8.20;99.90
25046;DHT22;13044;49.304;12.840;2023-11-21T09:50:30;8.20;99.90
25046;DHT22;13044;49.304;12.840;2023-11-21T09:53:18;8.30;99.90
25046;DHT22;13044;49.304;12.840;2023-11-21T09:55:52;8.30;99.90
25046;DHT22;13044;49.304;12.840;2023-11-21T09:58:20;8.30;99.90
25046;DHT22;13044;49.304;12.840;2023-11-21T10:00:51;8.30;99.90
25046;DHT22;13044;49.304;12.840;2023-11-21T10:03:20;8.30;99.90
25046;DHT22;13044;49.304;12.840;2023-11-21T10:05:50;8.30;99.90
25046;DHT22;13044;49.304;12.840;2023-11-21T10:08:17;8.40;99.90
25046;DHT22;13044;49.304;12.840;2023-11-21T10:10:49;8.40;99.90
25046;DHT22;13044;49.304;12.840;2023-11-21T10:13:18;8.40;99.90
25046;DHT22;13044;49.304;12.840;2023-11-21T10:15:50;8.40;99.90
25046;DHT22;13044;49.304;12.840;2023-11-21T10:18:19;8.60;99.90
25046;DHT22;13044;49.304;12.840;2023-11-21T10:20:49;8.60;99.90
25046;DHT22;13044;49.304;12.840;2023-11-21T10:23:21;8.60;99.90
25046;DHT22;13044;49.304;12.840;2023-11-21T10:25:50;8.70;99.90
25046;DHT22;13044;49.304;12.840;2023-11-21T10:28:19;8.80;99.90
25046;DHT22;13044;49.304;12.840;2023-11-21T10:30:47;8.70;99.90
25046;DHT22;13044;49.304;12.840;2023-11-21T10:33:14;8.70;99.90
25046;DHT22;13044;49.304;12.840;2023-11-21T10:38:08;8.80;99.90
25046;DHT22;13044;49.304;12.840;2023-11-21T10:40:41;8.90;99.90
25046;DHT22;13044;49.304;12.840;2023-11-21T10:43:09;8.90;99.90
25046;DHT22;13044;49.304;12.840;2023-11-21T10:45:40;8.90;99.90
25046;DHT22;13044;49.304;12.840;2023-11-21T10:48:14;8.90;99.90
25046;DHT22;13044;49.304;12.840;2023-11-21T10:50:46;9.00;99.90
25046;DHT22;13044;49.304;12.840;2023-11-21T10:53:14;9.00;99.90
25046;DHT22;13044;49.304;12.840;2023-11-21T10:55:42;9.10;99.90
25046;DHT22;13044;49.304;12.840;2023-11-21T10:58:13;9.10;99.90
25046;DHT22;13044;49.304;12.840;2023-11-21T11:00:41;9.10;99.90
25046;DHT22;13044;49.304;12.840;2023-11-21T11:03:09;9.00;99.90
25046;DHT22;13044;49.304;12.840;2023-11-21T11:05:44;9.00;99.90
25046;DHT22;13044;49.304;12.840;2023-11-21T11:08:21;9.00;99.90
25046;DHT22;13044;49.304;12.840;2023-11-21T11:10:54;9.10;99.90
25046;DHT22;13044;49.304;12.840;2023-11-21T11:13:21;9.10;99.90
25046;DHT22;13044;49.304;12.840;2023-11-21T11:15:49;9.00;99.90
25046;DHT22;13044;49.304;12.840;2023-11-21T11:18:16;9.00;99.90
25046;DHT22;13044;49.304;12.840;2023-11-21T11:20:45;9.10;99.90
25046;DHT22;13044;49.304;12.840;2023-11-21T11:23:53;9.10;99.90
25046;DHT22;13044;49.304;12.840;2023-11-21T11:29:47;9.30;99.90
25046;DHT22;13044;49.304;12.840;2023-11-21T11:32:53;9.30;99.90
25046;DHT22;13044;49.304;12.840;2023-11-21T11:38:56;9.00;99.90
25046;DHT22;13044;49.304;12.840;2023-11-21T11:41:28;9.00;99.90
25046;DHT22;13044;49.304;12.840;2023-11-21T11:44:00;9.00;99.90
25046;DHT22;13044;49.304;12.840;2023-11-21T11:46:44;9.00;99.90
25046;DHT22;13044;49.304;12.840;2023-11-21T11:49:28;9.10;99.90
25046;DHT22;13044;49.304;12.840;2023-11-21T11:55:14;9.10;99.90
25046;DHT22;13044;49.304;12.840;2023-11-21T11:57:46;9.20;99.90
25046;DHT22;13044;49.304;12.840;2023-11-21T12:00:20;9.20;99.90
25046;DHT22;13044;49.304;12.840;2023-11-21T12:02:59;9.20;99.90
25046;DHT22;13044;49.304;12.840;2023-11-21T12:05:31;9.30;99.90
25046;DHT22;13044;49.304;12.840;2023-11-21T12:08:03;9.30;99.90
25046;DHT22;13044;49.304;12.840;2023-11-21T12:10:32;9.40;99.90
25046;DHT22;13044;49.304;12.840;2023-11-21T12:13:10;9.40;99.90
25046;DHT22;13044;49.304;12.840;2023-11-21T12:15:39;9.40;99.90
25046;DHT22;13044;49.304;12.840;2023-11-21T12:18:08;9.30;99.90
25046;DHT22;13044;49.304;12.840;2023-11-21T12:20:35;9.30;99.90
25046;DHT22;13044;49.304;12.840;2023-11-21T12:23:06;9.30;99.90
25046;DHT22;13044;49.304;12.840;2023-11-21T12:25:35;9.30;99.90
25046;DHT22;13044;49.304;12.840;2023-11-21T12:28:03;9.20;99.90
25046;DHT22;13044;49.304;12.840;2023-11-21T12:30:32;9.20;99.90
25046;DHT22;13044;49.304;12.840;2023-11-21T12:33:02;9.20;99.90
25046;DHT22;13044;49.304;12.840;2023-11-21T12:35:32;9.20;99.90
25046;DHT22;13044;49.304;12.840;2023-11-21T12:38:04;9.20;99.90
25046;DHT22;13044;49.304;12.840;2023-11-21T12:40:32;9.30;99.90
25046;DHT22;13044;49.304;12.840;2023-11-21T12:43:00;9.30;99.90
25046;DHT22;13044;49.304;12.840;2023-11-21T12:45:29;9.40;99.90
25046;DHT22;13044;49.304;12.840;2023-11-21T12:50:28;9.30;99.90
25046;DHT22;13044;49.304;12.840;2023-11-21T12:53:07;9.30;99.90
25046;DHT22;13044;49.304;12.840;2023-11-21T12:55:36;9.30;99.90
25046;DHT22;13044;49.304;12.840;2023-11-21T12:58:09;9.30;99.90
25046;DHT22;13044;49.304;12.840;2023-11-21T13:00:46;9.30;99.90
25046;DHT22;13044;49.304;12.840;2023-11-21T13:03:16;9.40;99.90
25046;DHT22;13044;49.304;12.840;2023-11-21T13:05:47;9.50;99.90
25046;DHT22;13044;49.304;12.840;2023-11-21T13:08:19;9.50;99.90
25046;DHT22;13044;49.304;12.840;2023-11-21T13:10:53;9.40;99.90
25046;DHT22;13044;49.304;12.840;2023-11-21T13:13:23;9.30;99.90
25046;DHT22;13044;49.304;12.840;2023-11-21T13:15:53;9.40;99.90
25046;DHT22;13044;49.304;12.840;2023-11-21T13:18:24;9.40;99.90
25046;DHT22;13044;49.304;12.840;2023-11-21T13:20:58;9.30;99.90
25046;DHT22;13044;49.304;12.840;2023-11-21T13:23:26;9.30;99.90
25046;DHT22;13044;49.304;12.840;2023-11-21T13:25:54;9.30;99.90
25046;DHT22;13044;49.304;12.840;2023-11-21T13:28:31;9.30;99.90
25046;DHT22;13044;49.304;12.840;2023-11-21T13:31:01;9.30;99.90
25046;DHT22;13044;49.304;12.840;2023-11-21T13:33:36;9.20;99.90
25046;DHT22;13044;49.304;12.840;2023-11-21T13:36:07;9.20;99.90
25046;DHT22;13044;49.304;12.840;2023-11-21T13:38:36;9.20;99.90
25046;DHT22;13044;49.304;12.840;2023-11-21T13:41:04;9.20;99.90
25046;DHT22;13044;49.304;12.840;2023-11-21T13:43:34;9.10;99.90
25046;DHT22;13044;49.304;12.840;2023-11-21T13:46:03;9.10;99.90
25046;DHT22;13044;49.304;12.840;2023-11-21T13:48:40;9.20;99.90
25046;DHT22;13044;49.304;12.840;2023-11-21T13:51:17;9.10;99.90
25046;DHT22;13044;49.304;12.840;2023-11-21T13:53:48;9.20;99.90
25046;DHT22;13044;49.304;12.840;2023-11-21T13:56:18;9.20;99.90
25046;DHT22;13044;49.304;12.840;2023-11-21T13:58:52;9.20;99.90
25046;DHT22;13044;49.304;12.840;2023-11-21T14:01:24;9.20;99.90
25046;DHT22;13044;49.304;12.840;2023-11-21T14:04:00;9.20;99.90
25046;DHT22;13044;49.304;12.840;2023-11-21T14:06:35;9.10;99.90
25046;DHT22;13044;49.304;12.840;2023-11-21T14:09:19;9.10;99.90
25046;DHT22;13044;49.304;12.840;2023-11-21T14:11:55;9.10;99.90
25046;DHT22;13044;49.304;12.840;2023-11-21T14:14:25;9.10;99.90
25046;DHT22;13044;49.304;12.840;2023-11-21T14:16:54;9.10;99.90
25046;DHT22;13044;49.304;12.840;2023-11-21T14:19:25;9.20;99.90
25046;DHT22;13044;49.304;12.840;2023-11-21T14:21:59;9.20;99.90
25046;DHT22;13044;49.304;12.840;2023-11-21T14:24:27;9.10;99.90
25046;DHT22;13044;49.304;12.840;2023-11-21T14:26:55;9.10;99.90
25046;DHT22;13044;49.304;12.840;2023-11-21T14:29:22;9.20;99.90
25046;DHT22;13044;49.304;12.840;2023-11-21T14:31:51;9.10;99.90
25046;DHT22;13044;49.304;12.840;2023-11-21T14:34:20;9.10;99.90
25046;DHT22;13044;49.304;12.840;2023-11-21T14:36:49;9.20;99.90
25046;DHT22;13044;49.304;12.840;2023-11-21T14:39:17;9.20;99.90
25046;DHT22;13044;49.304;12.840;2023-11-21T14:41:53;9.10;99.90
25046;DHT22;13044;49.304;12.840;2023-11-21T14:44:22;9.10;99.90
25046;DHT22;13044;49.304;12.840;2023-11-21T14:46:53;9.10;99.90
25046;DHT22;13044;49.304;12.840;2023-11-21T14:49:24;9.00;99.90
25046;DHT22;13044;49.304;12.840;2023-11-21T14:51:55;9.00;99.90
25046;DHT22;13044;49.304;12.840;2023-11-21T14:54:28;9.00;99.90
25046;DHT22;13044;49.304;12.840;2023-11-21T14:57:10;8.80;99.90
25046;DHT22;13044;49.304;12.840;2023-11-21T14:59:47;8.90;99.90
25046;DHT22;13044;49.304;12.840;2023-11-21T15:02:19;8.90;99.90
25046;DHT22;13044;49.304;12.840;2023-11-21T15:05:10;8.90;99.90
25046;DHT22;13044;49.304;12.840;2023-11-21T15:07:42;8.90;99.90
25046;DHT22;13044;49.304;12.840;2023-11-21T15:10:10;8.90;99.90
25046;DHT22;13044;49.304;12.840;2023-11-21T15:12:40;8.90;99.90
25046;DHT22;13044;49.304;12.840;2023-11-21T15:15:07;8.90;99.90
25046;DHT22;13044;49.304;12.840;2023-11-21T15:17:37;8.90;99.90
25046;DHT22;13044;49.304;12.840;2023-11-21T15:20:05;8.90;99.90
25046;DHT22;13044;49.304;12.840;2023-11-21T15:22:35;8.80;99.90
25046;DHT22;13044;49.304;12.840;2023-11-21T15:25:04;8.80;99.90
25046;DHT22;13044;49.304;12.840;2023-11-21T15:27:36;8.80;99.90
25046;DHT22;13044;49.304;12.840;2023-11-21T15:30:04;8.80;99.90
25046;DHT22;13044;49.304;12.840;2023-11-21T15:32:32;8.80;99.90
25046;DHT22;13044;49.304;12.840;2023-11-21T15:34:59;8.80;99.90
25046;DHT22;13044;49.304;12.840;2023-11-21T15:37:26;8.70;99.90
25046;DHT22;13044;49.304;12.840;2023-11-21T15:39:55;8.80;99.90
25046;DHT22;13044;49.304;12.840;2023-11-21T15:42:22;8.80;99.90
25046;DHT22;13044;49.304;12.840;2023-11-21T15:44:50;8.80;99.90
25046;DHT22;13044;49.304;12.840;2023-11-21T15:47:17;8.80;99.90
25046;DHT22;13044;49.304;12.840;2023-11-21T15:49:45;8.70;99.90
25046;DHT22;13044;49.304;12.840;2023-11-21T15:52:16;8.60;99.90
25046;DHT22;13044;49.304;12.840;2023-11-21T15:54:43;8.60;99.90
25046;DHT22;13044;49.304;12.840;2023-11-21T15:57:13;8.70;99.90
25046;DHT22;13044;49.304;12.840;2023-11-21T15:59:41;8.60;99.90
25046;DHT22;13044;49.304;12.840;2023-11-21T16:02:09;8.70;99.90